Time;durP1;ratioP1;P1;durP2;ratioP2;P2;SDS_P1;SDS_P2;PMS_P1;PMS_P2;Temp;Humidity;BMP_temperature;BMP_pressure;BME280_temperature;BME280_humidity;BME280_pressure;Samples;Min_cycle;Max_cycle;Signal;HPM_P1;HPM_P2
2022/05/28 00:01:28;;;;;;;3.50;1.77;;;8.40;99.90;;;;;;5013306;28;20042;-80
2022/05/28 00:03:57;;;;;;;4.80;1.88;;;8.40;99.90;;;;;;5024519;28;20070;-79
2022/05/28 00:06:24;;;;;;;4.93;1.67;;;8.40;99.90;;;;;;5021335;28;20044;-79
2022/05/28 00:08:51;;;;;;;2.08;1.75;;;8.30;99.90;;;;;;5011895;28;20088;-81
2022/05/28 00:11:22;;;;;;;7.97;1.60;;;8.30;99.90;;;;;;5006493;28;20035;-80
2022/05/28 00:13:50;;;;;;;1.80;1.63;;;8.20;99.90;;;;;;5009149;28;20105;-80
2022/05/28 00:16:17;;;;;;;3.53;1.50;;;8.20;99.90;;;;;;5015956;28;20041;-80
2022/05/28 00:18:44;;;;;;;5.15;1.75;;;8.20;99.90;;;;;;5023800;28;20029;-79
2022/05/28 00:21:11;;;;;;;3.88;1.55;;;8.20;99.90;;;;;;5007030;28;20056;-80
2022/05/28 00:23:38;;;;;;;6.13;1.90;;;8.10;99.90;;;;;;5023314;28;20033;-79
2022/05/28 00:26:05;;;;;;;1.25;1.15;;;8.10;99.90;;;;;;5019966;28;20104;-80
2022/05/28 00:28:31;;;;;;;1.20;1.10;;;8.00;99.90;;;;;;5030396;28;20476;-80
2022/05/28 00:30:57;;;;;;;1.50;1.10;;;8.00;99.90;;;;;;5018864;28;20037;-80
2022/05/28 00:33:23;;;;;;;2.47;1.38;;;8.00;99.90;;;;;;4988751;28;20861;-79
2022/05/28 00:35:50;;;;;;;3.10;1.33;;;8.00;99.90;;;;;;5013677;28;20025;-80
2022/05/28 00:38:16;;;;;;;3.20;1.30;;;8.00;99.90;;;;;;5014447;28;20041;-80
2022/05/28 00:40:46;;;;;;;1.83;1.20;;;7.90;99.90;;;;;;4998500;28;20030;-78
2022/05/28 00:43:12;;;;;;;2.50;1.20;;;7.90;99.90;;;;;;5022774;28;20033;-80
2022/05/28 00:45:38;;;;;;;3.60;1.17;;;7.80;99.90;;;;;;5000435;28;20056;-79
2022/05/28 00:48:05;;;;;;;6.60;2.00;;;7.80;99.90;;;;;;5006950;28;20041;-79
2022/05/28 00:50:34;;;;;;;3.42;1.08;;;7.70;99.90;;;;;;5000136;28;20041;-79
2022/05/28 00:53:03;;;;;;;2.25;1.50;;;7.70;99.90;;;;;;5019148;28;20034;-79
2022/05/28 00:55:31;;;;;;;3.33;1.27;;;7.70;99.90;;;;;;4999772;28;20045;-79
2022/05/28 00:57:59;;;;;;;3.30;1.15;;;7.70;99.90;;;;;;5020792;28;20030;-79
2022/05/28 01:00:24;;;;;;;2.30;1.15;;;7.70;99.90;;;;;;5019079;28;20045;-79
2022/05/28 01:03:41;;;;;;;1.67;1.02;;;7.70;99.90;;;;;;5029427;28;20046;-80
2022/05/28 01:06:16;;;;;;;1.65;1.30;;;7.60;99.90;;;;;;4928006;29;20131;-79
2022/05/28 01:09:09;;;;;;;2.25;1.27;;;7.60;99.90;;;;;;4992793;28;20046;-80
2022/05/28 01:11:37;;;;;;;3.97;1.50;;;7.50;99.90;;;;;;4984076;28;20049;-79
2022/05/28 01:14:17;;;;;;;3.97;1.38;;;7.50;99.90;;;;;;5019027;28;20041;-79
2022/05/28 01:17:08;;;;;;;3.97;1.58;;;7.40;99.90;;;;;;5005966;28;20034;-80
2022/05/28 01:20:09;;;;;;;1.65;1.10;;;7.40;99.90;;;;;;5016428;28;20072;-80
2022/05/28 01:22:49;;;;;;;3.83;1.30;;;7.40;99.90;;;;;;5010175;28;20519;-80
2022/05/28 01:25:42;;;;;;;3.53;1.35;;;7.40;99.90;;;;;;5005558;28;20036;-78
2022/05/28 01:28:13;;;;;;;5.57;1.50;;;7.30;99.90;;;;;;5031285;28;20031;-79
2022/05/28 01:30:41;;;;;;;2.92;1.30;;;7.30;99.90;;;;;;5006767;28;20097;-79
2022/05/28 01:33:09;;;;;;;6.25;0.98;;;7.30;99.90;;;;;;5018422;28;20085;-79
2022/05/28 01:35:36;;;;;;;2.15;1.23;;;7.30;99.90;;;;;;5017189;28;20548;-79
2022/05/28 01:38:04;;;;;;;2.95;1.20;;;7.20;99.90;;;;;;5019233;28;20503;-79
2022/05/28 01:40:30;;;;;;;6.05;1.38;;;7.20;99.90;;;;;;4999732;28;20098;-80
2022/05/28 01:43:05;;;;;;;6.32;1.58;;;7.20;99.90;;;;;;5014679;28;20033;-80
2022/05/28 01:45:32;;;;;;;3.27;1.10;;;7.20;99.90;;;;;;5003406;28;20042;-79
2022/05/28 01:48:02;;;;;;;4.95;1.40;;;7.20;99.90;;;;;;5021166;28;20053;-80
2022/05/28 01:50:31;;;;;;;3.40;1.30;;;7.10;99.90;;;;;;4999094;28;20038;-80
2022/05/28 01:53:01;;;;;;;3.08;1.10;;;7.10;99.90;;;;;;5016306;28;20022;-79
2022/05/28 01:55:28;;;;;;;3.22;1.33;;;7.10;99.90;;;;;;5015449;28;20104;-80
2022/05/28 01:57:54;;;;;;;4.13;1.55;;;7.10;99.90;;;;;;5027396;28;20045;-80
2022/05/28 02:00:20;;;;;;;4.85;1.15;;;7.10;99.90;;;;;;4983601;28;20225;-79
2022/05/28 02:02:50;;;;;;;2.30;1.05;;;7.10;99.90;;;;;;5017081;28;20564;-79
2022/05/28 02:05:15;;;;;;;3.47;1.20;;;7.10;99.90;;;;;;4999975;28;20052;-80
2022/05/28 02:07:41;;;;;;;4.22;1.75;;;7.10;99.90;;;;;;4998930;28;20030;-79
2022/05/28 02:10:12;;;;;;;2.67;0.95;;;7.10;99.90;;;;;;5022294;28;20037;-80
2022/05/28 02:12:57;;;;;;;6.95;1.40;;;7.10;99.90;;;;;;5000114;28;20110;-80
2022/05/28 02:15:30;;;;;;;3.17;1.00;;;7.00;99.90;;;;;;5014224;28;20104;-79
2022/05/28 02:18:14;;;;;;;2.92;1.45;;;7.00;99.90;;;;;;5016115;28;20026;-79
2022/05/28 02:20:59;;;;;;;1.67;0.95;;;7.00;99.90;;;;;;4999431;28;20044;-80
2022/05/28 02:23:31;;;;;;;4.03;1.10;;;6.90;99.90;;;;;;4998437;28;20038;-79
2022/05/28 02:26:05;;;;;;;3.13;1.08;;;6.90;99.90;;;;;;4999829;28;20029;-79
2022/05/28 02:28:33;;;;;;;3.13;1.30;;;6.80;99.90;;;;;;5001562;28;20038;-79
2022/05/28 02:31:02;;;;;;;1.67;0.82;;;6.80;99.90;;;;;;4973302;28;20037;-80
2022/05/28 02:33:32;;;;;;;3.17;1.35;;;6.80;99.90;;;;;;4981356;28;20555;-80
2022/05/28 02:35:58;;;;;;;5.88;1.10;;;6.70;99.90;;;;;;5000285;28;20030;-80
2022/05/28 02:38:24;;;;;;;2.55;1.27;;;6.70;99.90;;;;;;5006838;28;20033;-79
2022/05/28 02:40:50;;;;;;;4.47;1.35;;;6.60;99.90;;;;;;4998447;28;20426;-80
2022/05/28 02:43:16;;;;;;;3.50;1.08;;;6.60;99.90;;;;;;5002762;28;20480;-80
2022/05/28 02:45:41;;;;;;;3.28;1.38;;;6.60;99.90;;;;;;5000434;28;20030;-81
2022/05/28 02:48:07;;;;;;;4.70;1.50;;;6.50;99.90;;;;;;5003668;28;20045;-81
2022/05/28 02:50:33;;;;;;;2.50;1.30;;;6.50;99.90;;;;;;5018651;28;20026;-81
2022/05/28 02:52:59;;;;;;;1.58;0.82;;;6.50;99.90;;;;;;4986379;28;20041;-80
2022/05/28 02:55:25;;;;;;;5.50;1.42;;;6.40;99.90;;;;;;4998024;28;20651;-81
2022/05/28 02:57:50;;;;;;;3.75;1.20;;;6.50;99.90;;;;;;5019213;28;20026;-81
2022/05/28 03:00:17;;;;;;;2.95;1.00;;;6.40;99.90;;;;;;5000418;28;20407;-81
2022/05/28 03:02:44;;;;;;;2.65;0.80;;;6.40;99.90;;;;;;4992052;28;20090;-81
2022/05/28 03:05:18;;;;;;;6.22;1.30;;;6.40;99.90;;;;;;5008008;28;20042;-80
2022/05/28 03:07:44;;;;;;;5.80;1.10;;;6.40;99.90;;;;;;5016403;28;20112;-81
2022/05/28 03:10:11;;;;;;;3.17;1.02;;;6.40;99.90;;;;;;4969339;28;20098;-81
2022/05/28 03:12:40;;;;;;;3.17;1.10;;;6.40;99.90;;;;;;5016163;28;20048;-81
2022/05/28 03:15:07;;;;;;;2.15;0.65;;;6.40;99.90;;;;;;5017885;28;20030;-81
2022/05/28 03:17:33;;;;;;;2.90;1.30;;;6.40;99.90;;;;;;4983012;28;20042;-81
2022/05/28 03:20:01;;;;;;;5.05;1.77;;;6.40;99.90;;;;;;5019618;28;20022;-81
2022/05/28 03:22:28;;;;;;;2.88;1.08;;;6.30;99.90;;;;;;5014772;28;20038;-81
2022/05/28 03:24:54;;;;;;;3.10;1.23;;;6.30;99.90;;;;;;5016125;28;20780;-80
2022/05/28 03:27:20;;;;;;;2.17;1.17;;;6.30;99.90;;;;;;5017100;28;20018;-81
2022/05/28 03:29:45;;;;;;;2.80;1.17;;;6.30;99.90;;;;;;5019211;28;20552;-81
2022/05/28 03:32:11;;;;;;;2.75;0.90;;;6.30;99.90;;;;;;5009618;28;20032;-81
2022/05/28 03:34:37;;;;;;;2.60;1.13;;;6.40;99.90;;;;;;5000131;28;20129;-79
2022/05/28 03:37:03;;;;;;;3.90;1.20;;;6.30;99.90;;;;;;5016192;28;20041;-80
2022/05/28 03:39:28;;;;;;;1.45;1.20;;;6.40;99.90;;;;;;5015327;28;20400;-80
2022/05/28 03:41:54;;;;;;;4.63;1.20;;;6.40;99.90;;;;;;5002965;28;20068;-80
2022/05/28 03:44:20;;;;;;;2.90;1.30;;;6.40;99.90;;;;;;5018699;28;20042;-80
2022/05/28 03:46:46;;;;;;;2.95;0.80;;;6.40;99.90;;;;;;5020302;28;20049;-80
2022/05/28 03:49:18;;;;;;;3.75;1.05;;;6.40;99.90;;;;;;5022440;28;20046;-80
2022/05/28 03:51:43;;;;;;;2.33;0.90;;;6.40;99.90;;;;;;5017129;28;20041;-81
2022/05/28 03:54:09;;;;;;;1.67;0.90;;;6.40;99.90;;;;;;5023655;28;20512;-80
2022/05/28 03:56:38;;;;;;;4.28;1.02;;;6.40;99.90;;;;;;4981463;28;20924;-79
2022/05/28 03:59:05;;;;;;;4.80;0.77;;;6.50;99.90;;;;;;5027250;28;20049;-80
2022/05/28 04:01:30;;;;;;;1.73;0.75;;;6.50;99.90;;;;;;4998191;28;20535;-80
2022/05/28 04:03:56;;;;;;;3.53;1.38;;;6.50;99.90;;;;;;5011824;28;20030;-80
2022/05/28 04:06:22;;;;;;;0.82;0.77;;;6.50;99.90;;;;;;4979244;28;20053;-80
2022/05/28 04:08:48;;;;;;;3.72;0.90;;;6.60;99.90;;;;;;5002365;28;20624;-81
2022/05/28 04:11:14;;;;;;;2.63;1.02;;;6.60;99.90;;;;;;5004068;28;20073;-80
2022/05/28 04:13:40;;;;;;;3.30;1.13;;;6.60;99.90;;;;;;5000670;28;20099;-80
2022/05/28 04:16:06;;;;;;;5.70;0.90;;;6.60;99.90;;;;;;5006898;28;20449;-80
2022/05/28 04:18:32;;;;;;;1.48;0.60;;;6.70;99.90;;;;;;5000238;28;20112;-81
2022/05/28 04:20:57;;;;;;;3.25;1.17;;;6.70;99.90;;;;;;4986505;28;20037;-80
2022/05/28 04:23:24;;;;;;;4.05;1.08;;;6.80;99.90;;;;;;4983511;28;20036;-80
2022/05/28 04:25:51;;;;;;;1.92;0.85;;;6.80;99.90;;;;;;5000067;28;20076;-81
2022/05/28 04:28:16;;;;;;;3.45;0.88;;;6.80;99.90;;;;;;5010736;28;20057;-80
2022/05/28 04:30:42;;;;;;;3.63;0.90;;;6.80;99.90;;;;;;5015494;28;20030;-80
2022/05/28 04:33:08;;;;;;;2.05;1.10;;;6.90;99.90;;;;;;5014141;28;20026;-80
2022/05/28 04:35:33;;;;;;;4.30;0.90;;;6.90;99.90;;;;;;4997648;28;20034;-80
2022/05/28 04:37:59;;;;;;;3.25;1.10;;;7.00;99.90;;;;;;5014688;28;20130;-79
2022/05/28 04:40:25;;;;;;;5.03;0.90;;;7.00;99.90;;;;;;5005136;28;20037;-80
2022/05/28 04:42:50;;;;;;;0.93;0.70;;;7.10;99.90;;;;;;5001513;28;20108;-80
2022/05/28 04:45:16;;;;;;;0.88;0.73;;;7.10;99.90;;;;;;5016267;28;20034;-80
2022/05/28 04:47:42;;;;;;;2.05;0.80;;;7.20;99.90;;;;;;5020378;28;20125;-80
2022/05/28 04:50:08;;;;;;;4.60;0.70;;;7.20;99.90;;;;;;5015659;28;20093;-80
2022/05/28 04:52:34;;;;;;;3.85;0.80;;;7.20;99.90;;;;;;5015629;28;20029;-80
2022/05/28 04:54:59;;;;;;;2.15;0.80;;;7.30;99.90;;;;;;5015301;28;20026;-80
2022/05/28 04:57:25;;;;;;;1.13;0.90;;;7.30;99.90;;;;;;5021998;28;20500;-79
2022/05/28 04:59:51;;;;;;;2.38;0.80;;;7.40;99.90;;;;;;5022568;28;20034;-80
2022/05/28 05:02:16;;;;;;;2.55;0.85;;;7.40;99.90;;;;;;4969364;28;20030;-80
2022/05/28 05:04:42;;;;;;;2.20;0.80;;;7.50;99.90;;;;;;5027986;28;20038;-80
2022/05/28 05:07:08;;;;;;;5.53;1.00;;;7.50;99.90;;;;;;4997047;28;20632;-80
2022/05/28 05:09:34;;;;;;;2.95;1.17;;;7.60;99.90;;;;;;5027633;28;20038;-80
2022/05/28 05:11:59;;;;;;;4.03;1.08;;;7.70;99.90;;;;;;4996963;28;20060;-80
2022/05/28 05:14:26;;;;;;;2.97;0.80;;;7.70;99.90;;;;;;5015419;28;20046;-80
2022/05/28 05:16:52;;;;;;;3.28;1.10;;;7.80;99.90;;;;;;5028152;28;20515;-79
2022/05/28 05:19:18;;;;;;;4.28;1.27;;;7.90;99.90;;;;;;5016125;28;20057;-80
2022/05/28 05:21:44;;;;;;;5.28;1.08;;;8.00;99.90;;;;;;5038768;28;20045;-80
2022/05/28 05:24:10;;;;;;;9.05;1.02;;;8.10;99.90;;;;;;5028824;28;20052;-81
2022/05/28 05:26:38;;;;;;;3.97;1.05;;;8.30;99.90;;;;;;5027771;28;20045;-80
2022/05/28 05:29:04;;;;;;;1.50;0.85;;;8.50;99.90;;;;;;5008390;28;20041;-81
2022/05/28 05:31:30;;;;;;;3.88;1.00;;;8.90;99.90;;;;;;5006038;28;20045;-80
2022/05/28 05:33:55;;;;;;;6.78;1.08;;;9.30;99.90;;;;;;5004996;28;20065;-80
2022/05/28 05:36:21;;;;;;;4.88;0.85;;;9.80;99.90;;;;;;5001839;28;20033;-80
2022/05/28 05:38:47;;;;;;;2.65;1.33;;;10.30;99.90;;;;;;5015475;28;20038;-80
2022/05/28 05:41:12;;;;;;;4.25;0.88;;;10.70;99.90;;;;;;5014448;28;20125;-80
2022/05/28 05:43:38;;;;;;;3.90;0.55;;;11.20;99.90;;;;;;4993017;28;20034;-80
2022/05/28 05:46:04;;;;;;;6.10;0.80;;;11.70;99.90;;;;;;5000476;28;20040;-80
2022/05/28 05:48:30;;;;;;;4.55;1.30;;;12.10;99.90;;;;;;5029485;28;20046;-80
2022/05/28 05:51:03;;;;;;;1.38;0.70;;;12.50;99.90;;;;;;5031045;28;20037;-77
2022/05/28 05:53:28;;;;;;;2.13;0.68;;;12.80;99.90;;;;;;5016026;28;20034;-79
2022/05/28 05:55:54;;;;;;;4.18;0.60;;;13.00;99.90;;;;;;5025768;28;20033;-78
2022/05/28 05:58:19;;;;;;;3.15;0.90;;;12.90;99.90;;;;;;5036232;28;20590;-80
2022/05/28 06:00:45;;;;;;;2.13;0.80;;;12.80;99.90;;;;;;5018927;28;20041;-79
2022/05/28 06:03:16;;;;;;;2.47;0.88;;;12.50;99.90;;;;;;5015535;28;20045;-79
2022/05/28 06:05:43;;;;;;;2.85;0.73;;;12.30;99.90;;;;;;5007641;28;20045;-79
2022/05/28 06:08:09;;;;;;;3.35;0.70;;;12.00;99.90;;;;;;5014722;28;20039;-79
2022/05/28 06:10:35;;;;;;;1.80;0.70;;;11.80;99.90;;;;;;5003726;28;20041;-79
2022/05/28 06:13:01;;;;;;;1.25;0.70;;;11.70;99.90;;;;;;5016624;28;20037;-80
2022/05/28 06:15:27;;;;;;;3.92;0.77;;;11.60;99.90;;;;;;4987647;28;20062;-79
2022/05/28 06:17:52;;;;;;;3.45;1.15;;;11.50;99.90;;;;;;5008813;28;20063;-79
2022/05/28 06:20:18;;;;;;;4.50;0.90;;;11.40;99.90;;;;;;4995397;28;20037;-80
2022/05/28 06:22:44;;;;;;;2.30;0.88;;;11.30;99.90;;;;;;5029459;28;20064;-79
2022/05/28 06:25:10;;;;;;;6.60;1.20;;;11.20;99.90;;;;;;5004598;28;20057;-80
2022/05/28 06:27:36;;;;;;;3.17;1.10;;;11.30;99.90;;;;;;5026044;28;20034;-80
2022/05/28 06:30:02;;;;;;;3.85;1.00;;;11.50;99.90;;;;;;5025679;28;20029;-79
2022/05/28 06:32:28;;;;;;;10.68;1.02;;;11.50;99.90;;;;;;5008643;28;20030;-80
2022/05/28 06:34:55;;;;;;;1.02;0.60;;;11.50;99.90;;;;;;5017199;28;20044;-79
2022/05/28 06:37:20;;;;;;;3.25;1.02;;;11.60;99.90;;;;;;5003737;28;20116;-77
2022/05/28 06:39:46;;;;;;;1.85;0.65;;;11.70;99.90;;;;;;4988619;28;20041;-79
2022/05/28 06:42:12;;;;;;;2.50;0.77;;;11.60;99.90;;;;;;5009402;28;20029;-79
2022/05/28 06:44:38;;;;;;;2.83;1.00;;;11.70;99.90;;;;;;5010677;28;20042;-79
2022/05/28 06:47:04;;;;;;;5.25;1.10;;;11.90;99.90;;;;;;5019293;28;21101;-79
2022/05/28 06:49:31;;;;;;;1.52;0.70;;;12.20;99.90;;;;;;5028008;28;20045;-79
2022/05/28 06:51:57;;;;;;;2.60;0.90;;;12.50;99.90;;;;;;5025809;28;20026;-78
2022/05/28 06:54:22;;;;;;;3.90;0.73;;;12.70;99.90;;;;;;4982362;28;20313;-79
2022/05/28 06:56:51;;;;;;;4.35;1.10;;;12.70;99.90;;;;;;5010781;28;20109;-79
2022/05/28 06:59:17;;;;;;;3.63;0.52;;;12.80;99.90;;;;;;4980789;28;20023;-79
2022/05/28 07:01:43;;;;;;;2.60;0.65;;;12.80;99.90;;;;;;5006664;28;20080;-79
2022/05/28 07:04:09;;;;;;;2.63;0.80;;;12.90;99.90;;;;;;5007244;28;20060;-80
2022/05/28 07:06:36;;;;;;;4.05;0.75;;;13.00;99.90;;;;;;4997722;28;20064;-78
2022/05/28 07:09:02;;;;;;;2.50;0.82;;;13.00;99.90;;;;;;5023383;28;20040;-79
2022/05/28 07:11:30;;;;;;;4.22;0.98;;;12.90;99.90;;;;;;5003019;28;20034;-79
2022/05/28 07:13:56;;;;;;;2.75;0.90;;;12.80;99.90;;;;;;5003071;28;20484;-79
2022/05/28 07:16:24;;;;;;;4.72;0.80;;;12.80;99.90;;;;;;5022920;28;20046;-79
2022/05/28 07:18:50;;;;;;;2.70;1.10;;;12.90;99.90;;;;;;5012129;28;20092;-79
2022/05/28 07:21:15;;;;;;;2.90;0.85;;;13.00;99.90;;;;;;5028937;28;20034;-79
2022/05/28 07:23:41;;;;;;;3.75;0.98;;;13.00;99.90;;;;;;4986081;28;20038;-79
2022/05/28 07:26:14;;;;;;;1.15;0.70;;;13.00;99.90;;;;;;5017634;28;20030;-80
2022/05/28 07:28:41;;;;;;;5.63;1.00;;;12.90;99.90;;;;;;5011640;28;20033;-80
2022/05/28 07:31:10;;;;;;;9.70;1.40;;;12.80;99.90;;;;;;5018580;28;20034;-80
2022/05/28 07:33:41;;;;;;;3.00;0.75;;;12.70;99.90;;;;;;4987006;28;20037;-80
2022/05/28 07:36:09;;;;;;;5.18;1.02;;;12.50;99.90;;;;;;4992755;28;20025;-79
2022/05/28 07:38:37;;;;;;;4.85;0.98;;;12.40;99.90;;;;;;5022990;28;20030;-80
2022/05/28 07:41:08;;;;;;;2.53;1.38;;;12.30;99.90;;;;;;5025331;28;20029;-78
2022/05/28 07:43:35;;;;;;;1.83;1.00;;;12.20;99.90;;;;;;4982227;28;20129;-80
2022/05/28 07:46:01;;;;;;;3.22;1.35;;;12.20;99.90;;;;;;5010530;28;20033;-79
2022/05/28 07:48:27;;;;;;;2.65;0.80;;;12.20;99.90;;;;;;5022672;28;20057;-79
2022/05/28 07:50:53;;;;;;;2.10;0.70;;;12.60;99.90;;;;;;5003042;28;20030;-79
2022/05/28 07:53:19;;;;;;;4.32;0.95;;;12.90;99.90;;;;;;5022616;28;20033;-78
2022/05/28 07:55:45;;;;;;;0.57;0.40;;;13.20;99.90;;;;;;5018167;28;20834;-79
2022/05/28 07:58:16;;;;;;;1.27;0.70;;;13.30;99.90;;;;;;4996175;28;20037;-77
2022/05/28 08:00:45;;;;;;;4.50;0.70;;;13.70;99.90;;;;;;4990113;28;20038;-79
2022/05/28 08:03:12;;;;;;;3.17;0.70;;;14.00;99.90;;;;;;5022280;28;20034;-79
2022/05/28 08:05:41;;;;;;;2.13;0.68;;;14.40;99.90;;;;;;5010790;28;20037;-79
2022/05/28 08:08:08;;;;;;;2.15;0.77;;;14.70;99.90;;;;;;5008355;28;20034;-78
2022/05/28 08:10:34;;;;;;;3.17;0.93;;;14.80;99.90;;;;;;5027224;28;20030;-79
2022/05/28 08:13:08;;;;;;;3.47;0.60;;;14.90;99.90;;;;;;5008974;28;20021;-78
2022/05/28 08:15:40;;;;;;;3.28;0.70;;;14.90;99.90;;;;;;5001395;28;20131;-79
2022/05/28 08:18:07;;;;;;;5.65;1.00;;;15.10;99.90;;;;;;5020658;28;20017;-79
2022/05/28 08:23:18;;;;;;;6.75;1.10;;;15.20;99.90;;;;;;5026314;28;20050;-79
2022/05/28 08:25:45;;;;;;;2.88;0.90;;;15.20;99.90;;;;;;5010939;28;20121;-79
2022/05/28 08:28:13;;;;;;;3.15;0.77;;;15.20;99.90;;;;;;5030257;28;20033;-79
2022/05/28 08:30:39;;;;;;;3.15;0.80;;;15.30;99.90;;;;;;4990999;28;20459;-79
2022/05/28 08:33:07;;;;;;;5.65;0.95;;;15.20;99.90;;;;;;4985769;28;20042;-80
2022/05/28 08:35:34;;;;;;;2.72;0.73;;;15.10;99.90;;;;;;4982652;28;20034;-79
2022/05/28 08:38:09;;;;;;;3.75;1.10;;;15.20;99.90;;;;;;4986520;28;20545;-78
2022/05/28 08:40:49;;;;;;;;;;;15.40;99.90;;;;;;5009270;28;20030;-80
2022/05/28 08:43:17;;;;;;;6.57;0.85;;;15.50;99.90;;;;;;4994322;28;19913;-79
2022/05/28 08:45:50;;;;;;;5.10;1.10;;;15.50;99.90;;;;;;4996417;28;20480;-79
2022/05/28 08:48:23;;;;;;;1.67;0.57;;;15.40;99.90;;;;;;4982696;28;20037;-79
2022/05/28 08:51:17;;;;;;;1.90;0.50;;;15.20;99.90;;;;;;5013671;28;20125;-77
2022/05/28 08:53:54;;;;;;;2.20;0.63;;;14.90;99.90;;;;;;4982766;28;20559;-79
2022/05/28 08:56:23;;;;;;;3.63;0.82;;;14.60;99.90;;;;;;4994173;28;20040;-79
2022/05/28 08:59:01;;;;;;;1.92;0.75;;;14.50;99.90;;;;;;4994822;28;20038;-78
2022/05/28 09:01:30;;;;;;;2.95;0.95;;;14.80;99.90;;;;;;5005816;28;20138;-80
2022/05/28 09:04:00;;;;;;;2.25;0.60;;;15.00;99.90;;;;;;4996492;28;20071;-81
2022/05/28 09:06:39;;;;;;;3.25;0.80;;;15.20;99.90;;;;;;4998864;28;20099;-79
2022/05/28 09:09:08;;;;;;;2.42;0.60;;;15.30;99.90;;;;;;5017844;28;21409;-77
2022/05/28 09:11:35;;;;;;;0.50;0.50;;;15.20;99.90;;;;;;4986766;28;20099;-79
2022/05/28 09:14:25;;;;;;;1.48;0.68;;;15.00;99.90;;;;;;5027627;28;20065;-80
2022/05/28 09:17:03;;;;;;;3.92;0.88;;;14.80;99.90;;;;;;4989828;28;20045;-78
2022/05/28 09:19:34;;;;;;;1.00;0.60;;;14.90;99.90;;;;;;4991553;28;20115;-79
2022/05/28 09:22:00;;;;;;;2.70;0.70;;;15.00;99.90;;;;;;5002516;28;20034;-79
2022/05/28 09:24:30;;;;;;;1.23;0.50;;;15.10;99.90;;;;;;4985554;28;20084;-79
2022/05/28 09:27:02;;;;;;;2.63;0.47;;;15.20;99.90;;;;;;5004499;28;20022;-80
2022/05/28 09:30:03;;;;;;;0.70;0.47;;;15.30;99.90;;;;;;4996619;28;20776;-80
2022/05/28 09:32:59;;;;;;;1.95;0.75;;;15.10;99.90;;;;;;5003243;28;20034;-79
2022/05/28 09:35:46;;;;;;;3.15;0.88;;;14.80;99.90;;;;;;5002884;28;20065;-79
2022/05/28 09:38:32;;;;;;;4.18;0.52;;;14.70;99.90;;;;;;5010019;28;20037;-80
2022/05/28 09:41:21;;;;;;;1.50;0.50;;;14.60;99.90;;;;;;4999568;28;20038;-77
2022/05/28 09:44:20;;;;;;;1.85;0.65;;;14.60;99.90;;;;;;5022251;28;20092;-79
2022/05/28 09:46:46;;;;;;;6.13;0.90;;;14.80;99.90;;;;;;5019409;28;20038;-79
2022/05/28 09:49:23;;;;;;;4.00;0.80;;;14.80;99.90;;;;;;5027553;28;20037;-79
2022/05/28 09:52:04;;;;;;;2.38;0.63;;;14.90;99.90;;;;;;5008890;28;20116;-82
2022/05/28 09:54:33;;;;;;;2.15;0.77;;;15.10;99.90;;;;;;5006867;28;20041;-80
2022/05/28 09:57:01;;;;;;;4.38;0.70;;;15.20;99.90;;;;;;5019886;28;20643;-81
2022/05/28 09:59:35;;;;;;;1.50;0.50;;;15.30;99.90;;;;;;5021255;28;20025;-82
2022/05/28 10:02:23;;;;;;;1.17;0.82;;;15.40;99.90;;;;;;5006004;28;20064;-81
2022/05/28 10:05:11;;;;;;;1.58;0.93;;;15.40;99.90;;;;;;5012321;28;20038;-80
2022/05/28 10:07:45;;;;;;;2.38;0.73;;;15.40;99.90;;;;;;4999879;28;20053;-81
2022/05/28 10:10:16;;;;;;;2.78;0.93;;;15.30;99.90;;;;;;5002789;28;20032;-80
2022/05/28 10:12:41;;;;;;;2.13;0.80;;;15.20;99.90;;;;;;5021699;28;20022;-81
2022/05/28 10:15:18;;;;;;;2.15;0.80;;;15.20;99.90;;;;;;4992540;28;20032;-80
2022/05/28 10:18:00;;;;;;;2.45;0.60;;;15.20;99.90;;;;;;4983521;28;20033;-80
2022/05/28 10:20:26;;;;;;;4.30;0.80;;;15.30;99.90;;;;;;4994824;28;20664;-79
2022/05/28 10:22:55;;;;;;;1.10;0.70;;;15.40;99.90;;;;;;4997276;28;20393;-82
2022/05/28 10:25:51;;;;;;;1.58;0.60;;;15.50;99.90;;;;;;4993318;28;20042;-82
2022/05/28 10:28:29;;;;;;;1.67;0.65;;;15.60;99.90;;;;;;4984327;28;20064;-81
2022/05/28 10:30:55;;;;;;;1.13;0.80;;;15.80;99.90;;;;;;4986413;28;20050;-81
2022/05/28 10:33:26;;;;;;;4.20;0.68;;;15.90;99.90;;;;;;4996243;28;20034;-81
2022/05/28 10:35:53;;;;;;;1.77;0.52;;;15.90;99.70;;;;;;4977757;28;20030;-80
2022/05/28 10:38:25;;;;;;;1.30;0.60;;;15.90;98.80;;;;;;4997753;28;20543;-79
2022/05/28 10:40:53;;;;;;;4.30;0.80;;;16.00;98.70;;;;;;5008727;28;20022;-80
2022/05/28 10:43:34;;;;;;;3.25;0.50;;;15.90;98.60;;;;;;4982777;28;20041;-81
2022/05/28 10:46:10;;;;;;;5.07;0.68;;;15.90;96.30;;;;;;5017597;28;20037;-81
2022/05/28 10:49:00;;;;;;;3.03;0.65;;;15.80;93.30;;;;;;4996998;28;20041;-80
2022/05/28 10:51:44;;;;;;;1.40;0.70;;;15.70;96.90;;;;;;5018991;28;20049;-80
2022/05/28 10:54:33;;;;;;;1.60;0.60;;;15.70;95.80;;;;;;5005169;28;20057;-81
2022/05/28 10:57:05;;;;;;;2.10;0.50;;;15.80;93.30;;;;;;4993750;28;20025;-80
2022/05/28 10:59:36;;;;;;;0.90;0.50;;;16.00;94.40;;;;;;5013160;28;20034;-80
2022/05/28 11:02:36;;;;;;;1.50;0.40;;;16.20;90.20;;;;;;4981082;28;20042;-80
2022/05/28 11:05:14;;;;;;;1.75;0.40;;;16.40;94.90;;;;;;5001553;28;20036;-81
2022/05/28 11:08:05;;;;;;;2.20;0.55;;;16.60;86.60;;;;;;5013020;28;20037;-81
2022/05/28 11:10:50;;;;;;;0.75;0.50;;;16.80;91.60;;;;;;5008834;28;21331;-81
2022/05/28 11:13:34;;;;;;;;;;;17.00;89.80;;;;;;5013950;28;20404;-80
2022/05/28 11:16:19;;;;;;;3.70;0.50;;;17.10;83.10;;;;;;4996636;28;19913;-81
2022/05/28 11:18:54;;;;;;;0.70;0.25;;;17.30;88.80;;;;;;5009396;28;20100;-80
2022/05/28 11:21:50;;;;;;;0.82;0.40;;;17.30;88.30;;;;;;4989725;28;20048;-82
2022/05/28 11:24:25;;;;;;;0.82;0.52;;;17.30;78.80;;;;;;5007126;28;20079;-81
2022/05/28 11:27:04;;;;;;;2.67;0.40;;;17.10;80.20;;;;;;4991547;28;20030;-80
2022/05/28 11:29:41;;;;;;;1.15;0.45;;;16.90;83.80;;;;;;5009794;28;20118;-79
2022/05/28 11:32:14;;;;;;;1.70;0.70;;;16.90;85.30;;;;;;5002650;28;20072;-77
2022/05/28 11:34:48;;;;;;;0.73;0.40;;;16.90;82.50;;;;;;5009280;28;20030;-77
2022/05/28 11:37:22;;;;;;;2.33;0.73;;;16.80;84.40;;;;;;4981558;28;20088;-83
2022/05/28 11:40:00;;;;;;;1.23;0.68;;;16.70;79.80;;;;;;5017799;28;20026;-79
2022/05/28 11:42:34;;;;;;;1.88;0.65;;;16.40;85.80;;;;;;5007498;28;20536;-79
2022/05/28 11:45:04;;;;;;;0.40;0.40;;;16.20;82.80;;;;;;4990133;28;20100;-79
2022/05/28 11:48:04;;;;;;;1.85;0.80;;;16.00;85.70;;;;;;4973588;28;20037;-79
2022/05/28 11:53:43;;;;;;;0.52;0.40;;;16.10;84.60;;;;;;5012487;28;20030;-82
2022/05/28 11:56:13;;;;;;;2.50;0.60;;;16.40;82.10;;;;;;5008572;28;20022;-80
2022/05/28 11:58:49;;;;;;;1.83;0.65;;;16.60;85.40;;;;;;4991864;28;20037;-81
2022/05/28 12:01:29;;;;;;;3.40;1.08;;;17.00;82.20;;;;;;5012005;28;20100;-79
2022/05/28 12:03:56;;;;;;;1.33;0.52;;;17.30;83.70;;;;;;5014069;28;20120;-82
2022/05/28 12:06:35;;;;;;;3.40;0.70;;;17.30;80.00;;;;;;5006011;28;20041;-79
2022/05/28 12:09:10;;;;;;;1.77;0.80;;;17.40;80.70;;;;;;5010986;28;20977;-80
2022/05/28 12:12:13;;;;;;;3.40;0.65;;;17.60;85.00;;;;;;5007928;28;20136;-81
2022/05/28 12:14:42;;;;;;;0.73;0.50;;;17.70;83.90;;;;;;4969864;28;20056;-78
2022/05/28 12:17:21;;;;;;;2.50;0.50;;;17.60;78.80;;;;;;4992621;28;20116;-79
2022/05/28 12:19:52;;;;;;;0.45;0.40;;;17.50;79.60;;;;;;5006342;28;20065;-80
2022/05/28 12:22:39;;;;;;;0.85;0.38;;;17.30;80.70;;;;;;4994744;28;20351;-81
2022/05/28 12:25:16;;;;;;;3.03;0.65;;;17.10;78.60;;;;;;5006692;28;20038;-78
2022/05/28 12:27:47;;;;;;;0.47;0.40;;;17.10;81.00;;;;;;5007533;28;20037;-79
2022/05/28 12:30:39;;;;;;;1.27;0.60;;;17.30;75.00;;;;;;5009235;28;20025;-79
2022/05/28 12:33:20;;;;;;;2.13;0.57;;;17.50;75.50;;;;;;4989587;28;20034;-80
2022/05/28 12:35:54;;;;;;;1.75;0.43;;;17.70;78.30;;;;;;5012063;28;20504;-79
2022/05/28 12:38:53;;;;;;;0.90;0.57;;;17.90;75.90;;;;;;5009180;28;20041;-78
2022/05/28 12:41:31;;;;;;;0.60;0.50;;;17.80;75.00;;;;;;4959163;28;20753;-78
2022/05/28 12:44:18;;;;;;;0.45;0.40;;;17.70;76.90;;;;;;5014329;28;20038;-79
2022/05/28 12:47:01;;;;;;;1.02;0.52;;;17.50;80.20;;;;;;4968986;28;20038;-78
2022/05/28 12:49:56;;;;;;;1.38;0.40;;;17.60;79.10;;;;;;5009442;28;20038;-79
2022/05/28 12:53:01;;;;;;;1.67;0.70;;;17.90;78.40;;;;;;4998897;28;20037;-80
2022/05/28 12:55:29;;;;;;;1.98;0.77;;;18.10;74.10;;;;;;4984949;28;20042;-79
2022/05/28 12:58:03;;;;;;;0.75;0.40;;;18.10;74.10;;;;;;5001780;28;20438;-78
2022/05/28 13:00:38;;;;;;;0.30;0.30;;;18.30;72.90;;;;;;4993440;28;20038;-79
2022/05/28 13:03:07;;;;;;;1.20;0.57;;;18.40;68.40;;;;;;5010035;28;20038;-80
2022/05/28 13:05:39;;;;;;;1.15;0.43;;;18.70;74.50;;;;;;4995988;28;20033;-78
2022/05/28 13:08:12;;;;;;;1.27;0.45;;;18.80;72.20;;;;;;5011961;28;21307;-78
2022/05/28 13:10:48;;;;;;;0.50;0.50;;;18.90;69.20;;;;;;4997389;28;20030;-80
2022/05/28 13:13:38;;;;;;;1.77;0.35;;;18.50;64.40;;;;;;5013404;28;20040;-78
2022/05/28 13:16:31;;;;;;;1.55;0.50;;;18.20;75.20;;;;;;5011611;28;20026;-78
2022/05/28 13:19:02;;;;;;;0.30;0.30;;;17.80;72.70;;;;;;5003601;28;20447;-78
2022/05/28 13:21:40;;;;;;;0.60;0.35;;;17.60;77.90;;;;;;4997053;28;20053;-79